Iqaluit, Canada
Current Conditions -  °F | °C
As of 7:00 PM on Wednesday 26 Nov 2014 (Local Time) from CYFB Reporting Station
Broken Clouds Broken Clouds  
Wind Chill:   Ceiling: 3500
Heat Index: 12°   Visibility: 15mi
Dew Point:   Wind: 5mph
Humidity: 67%   Direction: 110°ESE
Pressure: 29.6"   Gusts: NA
Location:  63.75°N, 68.52°W
Report Text: CYFB 270000Z 11004KT 090V170 15SM BKN035 M11/M16 A2960 RMK SC7 SLP026
Loading
Personal Weather Stations






























Interactive Weather Map New forecast layout! Learn more

10-Day Weather Forecast

Advertisements
Track Severe Weather on mobile